createdAt,value
2022-11-07T00:00:39.277Z,1.90
2022-11-07T00:03:05.752Z,1.73
2022-11-07T00:05:32.185Z,1.92
2022-11-07T00:07:58.668Z,2.20
2022-11-07T00:10:25.081Z,2.00
2022-11-07T00:12:51.480Z,2.40
2022-11-07T00:15:17.899Z,1.88
2022-11-07T00:17:44.306Z,1.80
2022-11-07T00:20:11.111Z,1.45
2022-11-07T00:22:37.503Z,2.15
2022-11-07T00:25:04.149Z,1.90
2022-11-07T00:27:30.593Z,2.17
2022-11-07T00:29:57.058Z,2.05
2022-11-07T00:32:23.438Z,2.50
2022-11-07T00:34:49.834Z,2.10
2022-11-07T00:37:16.219Z,2.20
2022-11-07T00:39:42.612Z,2.13
2022-11-07T00:42:08.992Z,2.20
2022-11-07T00:44:35.397Z,1.80
2022-11-07T00:47:01.878Z,2.10
2022-11-07T00:49:28.287Z,1.85
2022-11-07T00:51:54.667Z,2.20
2022-11-07T00:54:21.071Z,2.08
2022-11-07T00:56:47.449Z,1.95
2022-11-07T00:59:13.861Z,1.70
2022-11-07T01:01:40.445Z,2.05
2022-11-07T01:04:06.969Z,2.25
2022-11-07T01:06:34.644Z,2.13
2022-11-07T01:09:01.133Z,1.85
2022-11-07T01:11:28.190Z,2.05
2022-11-07T01:13:56.219Z,2.33
2022-11-07T01:16:22.658Z,2.22
2022-11-07T01:18:49.070Z,2.13
2022-11-07T01:21:16.759Z,2.30
2022-11-07T01:23:43.348Z,1.98
2022-11-07T01:26:10.803Z,2.10
2022-11-07T01:28:37.210Z,2.42
2022-11-07T01:31:04.553Z,2.00
2022-11-07T01:33:30.971Z,2.45
2022-11-07T01:36:08.537Z,2.00
2022-11-07T01:38:38.738Z,2.17
2022-11-07T01:41:06.030Z,2.20
2022-11-07T01:44:04.851Z,2.15
2022-11-07T01:46:35.849Z,1.83
2022-11-07T01:49:30.101Z,1.83
2022-11-07T01:51:59.428Z,2.08
2022-11-07T01:54:28.248Z,2.17
2022-11-07T01:56:55.829Z,2.55
2022-11-07T01:59:23.314Z,2.03
2022-11-07T02:01:49.906Z,2.58
2022-11-07T02:04:16.483Z,2.45
2022-11-07T02:06:52.226Z,2.42
2022-11-07T02:11:44.870Z,2.17
2022-11-07T02:14:17.873Z,2.05
2022-11-07T02:16:44.288Z,1.80
2022-11-07T02:19:22.325Z,2.28
2022-11-07T02:21:52.923Z,2.00
2022-11-07T02:24:23.864Z,1.77
2022-11-07T02:26:50.278Z,2.03
2022-11-07T02:29:16.677Z,2.28
2022-11-07T02:31:43.181Z,2.15
2022-11-07T02:34:09.586Z,2.65
2022-11-07T02:36:35.965Z,2.35
2022-11-07T02:39:02.386Z,2.00
2022-11-07T02:41:31.879Z,1.83
2022-11-07T02:44:00.481Z,2.50
2022-11-07T02:46:26.977Z,2.30
2022-11-07T02:48:57.371Z,2.25
2022-11-07T02:51:23.903Z,1.75
2022-11-07T02:53:50.690Z,2.00
2022-11-07T02:56:17.356Z,2.10
2022-11-07T02:58:43.790Z,2.30
2022-11-07T03:01:10.265Z,1.80
2022-11-07T03:03:37.510Z,1.98
2022-11-07T03:06:04.149Z,1.95
2022-11-07T03:08:30.543Z,2.08
2022-11-07T03:10:57.000Z,2.20
2022-11-07T03:13:23.417Z,2.42
2022-11-07T03:15:50.336Z,2.10
2022-11-07T03:18:16.927Z,1.95
2022-11-07T03:20:43.323Z,2.22
2022-11-07T03:23:09.729Z,2.08
2022-11-07T03:25:36.205Z,2.08
2022-11-07T03:28:02.639Z,2.13
2022-11-07T03:30:29.039Z,2.85
2022-11-07T03:32:55.498Z,1.60
2022-11-07T03:35:21.937Z,2.47
2022-11-07T03:37:48.660Z,1.77
2022-11-07T03:40:15.288Z,2.08
2022-11-07T03:42:44.744Z,2.03
2022-11-07T03:45:12.597Z,1.95
2022-11-07T03:47:39.855Z,2.13
2022-11-07T03:50:07.038Z,2.13
2022-11-07T03:52:33.433Z,2.25
2022-11-07T03:54:59.831Z,2.20
2022-11-07T03:57:26.218Z,2.40
2022-11-07T03:59:52.627Z,2.60
2022-11-07T04:02:19.174Z,2.40
2022-11-07T04:04:45.725Z,1.98
2022-11-07T04:07:12.107Z,2.15
2022-11-07T04:09:38.501Z,1.95
2022-11-07T04:12:05.176Z,2.38
2022-11-07T04:14:31.563Z,2.15
2022-11-07T04:16:57.946Z,2.22
2022-11-07T04:19:24.347Z,1.98
2022-11-07T04:21:50.838Z,2.05
2022-11-07T04:24:17.258Z,2.20
2022-11-07T04:26:43.663Z,1.70
2022-11-07T04:29:10.034Z,2.30
2022-11-07T04:31:36.438Z,2.20
2022-11-07T04:34:02.822Z,2.40
2022-11-07T04:36:29.216Z,2.25
2022-11-07T04:38:55.595Z,2.20
2022-11-07T04:41:25.048Z,2.20
2022-11-07T04:43:51.443Z,2.78
2022-11-07T04:46:17.856Z,1.95
2022-11-07T04:48:44.258Z,2.40
2022-11-07T04:51:18.624Z,2.40
2022-11-07T04:53:45.000Z,2.22
2022-11-07T04:56:11.458Z,2.35
2022-11-07T04:58:37.915Z,1.88
2022-11-07T05:01:04.317Z,2.22
2022-11-07T05:03:30.694Z,2.00
2022-11-07T05:05:57.120Z,2.47
2022-11-07T05:08:23.517Z,2.30
2022-11-07T05:10:49.896Z,2.42
2022-11-07T05:13:16.631Z,2.28
2022-11-07T05:15:43.238Z,2.40
2022-11-07T05:18:10.549Z,2.30
2022-11-07T05:20:38.089Z,2.15
2022-11-07T05:23:04.857Z,2.17
2022-11-07T05:25:31.247Z,2.10
2022-11-07T05:27:57.664Z,2.47
2022-11-07T05:30:24.061Z,2.58
2022-11-07T05:32:50.551Z,1.77
2022-11-07T05:35:17.007Z,2.42
2022-11-07T05:37:43.696Z,2.22
2022-11-07T05:40:10.702Z,2.22
2022-11-07T05:42:37.100Z,2.55
2022-11-07T05:45:03.648Z,2.08
2022-11-07T05:47:30.061Z,2.50
2022-11-07T05:49:56.564Z,2.53
2022-11-07T05:52:24.471Z,2.22
2022-11-07T05:54:50.881Z,2.40
2022-11-07T05:57:17.542Z,2.40
2022-11-07T05:59:43.932Z,2.28
2022-11-07T06:02:10.391Z,2.63
2022-11-07T06:04:36.881Z,2.83
2022-11-07T06:07:03.298Z,2.25
2022-11-07T06:09:29.785Z,2.20
2022-11-07T06:11:56.193Z,2.25
2022-11-07T06:14:22.586Z,2.30
2022-11-07T06:16:48.978Z,2.25
2022-11-07T06:19:15.431Z,2.17
2022-11-07T06:21:41.813Z,3.13
2022-11-07T06:24:14.861Z,2.58
2022-11-07T06:26:41.817Z,2.70
2022-11-07T06:29:08.316Z,2.72
2022-11-07T06:31:34.736Z,2.50
2022-11-07T06:34:01.192Z,2.63
2022-11-07T06:36:27.572Z,2.20
2022-11-07T06:38:53.994Z,2.78
2022-11-07T06:41:20.398Z,2.38
2022-11-07T06:43:46.821Z,3.20
2022-11-07T06:46:13.385Z,2.83
2022-11-07T06:48:40.251Z,2.50
2022-11-07T06:51:07.168Z,2.67
2022-11-07T06:53:33.695Z,2.72
2022-11-07T06:56:00.385Z,2.45
2022-11-07T06:58:26.823Z,2.08
2022-11-07T07:00:53.318Z,2.40
2022-11-07T07:03:19.809Z,2.42
2022-11-07T07:05:46.233Z,1.98
2022-11-07T07:08:12.675Z,2.33
2022-11-07T07:10:40.796Z,2.35
2022-11-07T07:13:07.195Z,2.55
2022-11-07T07:15:49.353Z,2.22
2022-11-07T07:18:16.947Z,2.45
2022-11-07T07:20:43.365Z,2.50
2022-11-07T07:23:09.743Z,2.38
2022-11-07T07:25:36.155Z,2.60
2022-11-07T07:28:02.556Z,2.15
2022-11-07T07:30:28.954Z,2.13
2022-11-07T07:32:55.366Z,2.28
2022-11-07T07:35:21.765Z,2.53
2022-11-07T07:37:51.542Z,2.00
2022-11-07T07:42:44.651Z,2.10
2022-11-07T07:45:11.632Z,2.83
2022-11-07T07:47:38.188Z,2.38
2022-11-07T07:50:05.489Z,2.42
2022-11-07T07:52:35.535Z,2.35
2022-11-07T07:55:07.362Z,3.13
2022-11-07T07:57:43.349Z,2.20
2022-11-07T08:00:13.350Z,3.10
2022-11-07T08:02:41.481Z,2.03
2022-11-07T08:05:09.784Z,2.30
2022-11-07T08:07:36.929Z,2.00
2022-11-07T08:10:39.557Z,2.55
2022-11-07T08:15:23.107Z,1.90
2022-11-07T08:17:49.565Z,2.33
2022-11-07T08:20:17.150Z,2.33
2022-11-07T08:22:43.549Z,2.20
2022-11-07T08:25:10.771Z,2.25
2022-11-07T08:27:37.298Z,2.55
2022-11-07T08:30:05.183Z,2.30
2022-11-07T08:32:31.638Z,1.70
2022-11-07T08:34:58.072Z,2.28
2022-11-07T08:37:24.746Z,2.13
2022-11-07T08:39:51.136Z,2.88
2022-11-07T08:42:17.567Z,2.47
2022-11-07T08:44:43.983Z,2.30
2022-11-07T08:47:10.442Z,2.33
2022-11-07T08:49:36.846Z,2.33
2022-11-07T08:52:03.362Z,2.55
2022-11-07T08:54:29.741Z,2.35
2022-11-07T08:56:56.233Z,2.20
2022-11-07T08:59:22.615Z,2.40
2022-11-07T09:02:15.450Z,2.60
2022-11-07T09:04:36.604Z,2.70
2022-11-07T09:07:03.146Z,2.50
2022-11-07T09:09:29.849Z,2.25
2022-11-07T09:11:56.601Z,2.13
2022-11-07T09:14:23.006Z,2.00
2022-11-07T09:16:49.956Z,2.30
2022-11-07T09:19:16.396Z,2.38
2022-11-07T09:21:42.830Z,2.33
2022-11-07T09:24:09.245Z,2.72
2022-11-07T09:26:35.677Z,2.28
2022-11-07T09:29:02.087Z,1.98
2022-11-07T09:31:28.693Z,2.35
2022-11-07T09:33:55.112Z,2.20
2022-11-07T09:36:21.520Z,2.28
2022-11-07T09:38:47.925Z,1.92
2022-11-07T09:41:43.622Z,1.98
2022-11-07T09:44:35.371Z,2.17
2022-11-07T09:47:25.878Z,2.20
2022-11-07T09:49:57.660Z,1.60
2022-11-07T09:52:41.488Z,2.00
2022-11-07T09:55:30.952Z,2.00
2022-11-07T09:58:06.021Z,1.50
2022-11-07T10:00:32.946Z,2.08
2022-11-07T10:03:00.207Z,1.95
2022-11-07T10:05:38.603Z,2.30
2022-11-07T10:08:14.774Z,2.60
2022-11-07T10:10:49.299Z,2.28
2022-11-07T10:13:35.993Z,3.05
2022-11-07T10:16:31.365Z,2.05
2022-11-07T10:19:06.624Z,2.85
2022-11-07T10:21:42.132Z,2.40
2022-11-07T10:24:17.343Z,2.72
2022-11-07T10:26:44.644Z,2.50
2022-11-07T10:29:15.789Z,2.92
2022-11-07T10:32:03.736Z,2.78
2022-11-07T10:34:38.154Z,3.15
2022-11-07T10:37:04.685Z,2.42
2022-11-07T10:39:31.347Z,2.72
2022-11-07T10:42:11.186Z,2.85
2022-11-07T10:44:40.101Z,2.80
2022-11-07T10:47:23.148Z,2.47
2022-11-07T10:50:00.288Z,3.00
2022-11-07T10:52:27.570Z,2.45
2022-11-07T10:55:14.862Z,2.50
2022-11-07T10:57:41.410Z,2.50
2022-11-07T11:00:29.636Z,2.90
2022-11-07T11:02:56.273Z,2.65
2022-11-07T11:05:24.062Z,2.55
2022-11-07T11:07:50.549Z,2.58
2022-11-07T11:10:30.515Z,2.35
2022-11-07T11:12:57.083Z,2.38
2022-11-07T11:15:25.520Z,2.58
2022-11-07T11:18:17.284Z,2.58
2022-11-07T11:20:46.353Z,2.40
2022-11-07T11:23:19.735Z,2.35
2022-11-07T11:25:47.165Z,2.10
2022-11-07T11:28:47.798Z,2.75
2022-11-07T11:31:32.443Z,2.33
2022-11-07T11:34:06.802Z,2.85
2022-11-07T11:36:35.930Z,3.33
2022-11-07T11:39:03.645Z,2.45
2022-11-07T11:41:37.918Z,2.55
2022-11-07T11:44:16.534Z,3.20
2022-11-07T11:46:48.632Z,2.47
2022-11-07T11:49:28.521Z,3.00
2022-11-07T11:52:00.509Z,2.47
2022-11-07T11:54:26.941Z,2.85
2022-11-07T11:56:54.115Z,2.80
2022-11-07T11:59:27.208Z,2.72
2022-11-07T12:01:53.528Z,3.00
2022-11-07T12:04:42.066Z,2.60
2022-11-07T12:07:11.264Z,2.70
2022-11-07T12:09:59.532Z,2.58
2022-11-07T12:12:33.559Z,2.63
2022-11-07T12:15:18.142Z,2.70
2022-11-07T12:17:50.041Z,2.53
2022-11-07T12:20:30.232Z,2.92
2022-11-07T12:23:37.388Z,2.88
2022-11-07T12:26:31.584Z,2.60
2022-11-07T12:29:11.864Z,2.97
2022-11-07T12:31:50.411Z,2.47
2022-11-07T12:34:34.588Z,2.58
2022-11-07T12:37:16.213Z,2.60
2022-11-07T12:40:05.514Z,3.08
2022-11-07T12:42:53.754Z,2.15
2022-11-07T12:45:45.457Z,2.88
2022-11-07T12:48:17.662Z,3.00
2022-11-07T12:50:46.938Z,2.45
2022-11-07T12:53:37.559Z,2.60
2022-11-07T12:56:16.157Z,2.90
2022-11-07T12:58:47.452Z,2.58
2022-11-07T13:01:14.899Z,2.25
2022-11-07T13:04:06.282Z,3.55
2022-11-07T13:06:41.141Z,2.53
2022-11-07T13:09:37.198Z,2.47
2022-11-07T13:12:34.401Z,2.45
2022-11-07T13:15:00.874Z,2.72
2022-11-07T13:17:27.260Z,3.20
2022-11-07T13:20:00.642Z,2.08
2022-11-07T13:22:32.928Z,3.13
2022-11-07T13:25:16.059Z,2.25
2022-11-07T13:27:43.030Z,2.03
2022-11-07T13:30:10.548Z,2.15
2022-11-07T13:32:43.388Z,2.95
2022-11-07T13:35:30.037Z,2.15
2022-11-07T13:38:10.448Z,2.30
2022-11-07T13:41:00.566Z,2.38
2022-11-07T13:43:39.894Z,2.38
2022-11-07T13:46:08.598Z,2.35
2022-11-07T13:48:54.958Z,2.55
2022-11-07T13:51:41.066Z,2.60
2022-11-07T13:54:19.553Z,2.70
2022-11-07T13:56:55.956Z,2.40
2022-11-07T13:59:37.894Z,2.20
2022-11-07T14:02:04.565Z,2.03
2022-11-07T14:04:39.881Z,2.42
2022-11-07T14:07:10.930Z,2.42
2022-11-07T14:09:37.375Z,3.00
2022-11-07T14:12:03.984Z,2.30
2022-11-07T14:14:30.463Z,2.40
2022-11-07T14:17:00.508Z,2.13
2022-11-07T14:19:27.726Z,2.33
2022-11-07T14:21:54.944Z,2.70
2022-11-07T14:24:39.706Z,2.53
2022-11-07T14:27:11.422Z,3.08
2022-11-07T14:29:37.886Z,2.25
2022-11-07T14:32:05.832Z,2.25
2022-11-07T14:34:35.544Z,2.42
2022-11-07T14:39:30.004Z,2.35
2022-11-07T14:41:56.944Z,2.30
2022-11-07T14:44:36.252Z,3.08
2022-11-07T14:47:17.307Z,2.28
2022-11-07T14:49:44.259Z,2.20
2022-11-07T14:52:31.390Z,2.35
2022-11-07T14:55:03.822Z,1.85
2022-11-07T14:57:34.989Z,2.30
2022-11-07T15:00:06.029Z,2.40
2022-11-07T15:02:32.992Z,2.40
2022-11-07T15:05:06.745Z,1.90
2022-11-07T15:07:46.142Z,3.20
2022-11-07T15:10:14.353Z,2.22
2022-11-07T15:12:51.806Z,2.25
2022-11-07T15:15:19.967Z,2.25
2022-11-07T15:17:54.040Z,2.25
2022-11-07T15:20:21.762Z,1.98
2022-11-07T15:22:48.188Z,2.17
2022-11-07T15:25:24.379Z,2.50
2022-11-07T15:27:50.848Z,2.10
2022-11-07T15:30:31.008Z,1.92
2022-11-07T15:32:57.418Z,2.30
2022-11-07T15:35:44.194Z,2.20
2022-11-07T15:38:19.223Z,2.30
2022-11-07T15:40:46.389Z,2.25
2022-11-07T15:43:12.837Z,1.90
2022-11-07T15:45:39.348Z,1.55
2022-11-07T15:48:07.278Z,2.30
2022-11-07T15:50:33.818Z,2.13
2022-11-07T15:53:00.205Z,2.17
2022-11-07T15:55:26.652Z,1.67
2022-11-07T15:57:53.669Z,1.98
2022-11-07T16:00:24.320Z,1.90
2022-11-07T16:02:52.054Z,1.75
2022-11-07T16:05:18.764Z,2.58
2022-11-07T16:07:45.268Z,1.83
2022-11-07T16:10:23.397Z,1.70
2022-11-07T16:12:49.880Z,2.20
2022-11-07T16:15:17.052Z,1.50
2022-11-07T16:17:43.685Z,2.08
2022-11-07T16:20:30.496Z,1.40
2022-11-07T16:22:56.947Z,1.77
2022-11-07T16:25:24.151Z,1.58
2022-11-07T16:27:51.459Z,1.80
2022-11-07T16:30:18.260Z,1.33
2022-11-07T16:32:44.659Z,2.38
2022-11-07T16:35:12.208Z,1.67
2022-11-07T16:37:38.627Z,2.13
2022-11-07T16:40:06.291Z,1.77
2022-11-07T16:42:32.780Z,1.40
2022-11-07T16:44:59.269Z,1.50
2022-11-07T16:47:25.870Z,1.70
2022-11-07T16:49:55.916Z,2.10
2022-11-07T16:52:22.632Z,1.65
2022-11-07T16:54:49.087Z,1.42
2022-11-07T16:57:16.964Z,1.27
2022-11-07T16:59:43.803Z,1.77
2022-11-07T17:02:21.879Z,1.65
2022-11-07T17:04:49.339Z,1.60
2022-11-07T17:07:15.913Z,1.50
2022-11-07T17:09:42.448Z,1.67
2022-11-07T17:12:15.756Z,2.08
2022-11-07T17:14:42.247Z,1.95
2022-11-07T17:17:08.757Z,1.70
2022-11-07T17:19:35.159Z,2.10
2022-11-07T17:22:01.595Z,1.80
2022-11-07T17:24:28.001Z,2.40
2022-11-07T17:26:54.415Z,1.95
2022-11-07T17:29:20.831Z,1.65
2022-11-07T17:31:47.487Z,2.17
2022-11-07T17:34:13.929Z,2.20
2022-11-07T17:36:46.205Z,2.05
2022-11-07T17:39:21.785Z,2.03
2022-11-07T17:41:49.209Z,2.40
2022-11-07T17:44:15.918Z,1.77
2022-11-07T17:46:43.955Z,2.38
2022-11-07T17:49:12.361Z,2.20
2022-11-07T17:51:38.770Z,2.85
2022-11-07T17:54:05.484Z,2.55
2022-11-07T17:56:32.322Z,2.92
2022-11-07T17:59:00.505Z,2.80
2022-11-07T18:01:28.731Z,3.55
2022-11-07T18:03:55.420Z,3.30
2022-11-07T18:06:22.200Z,3.67
2022-11-07T18:08:53.179Z,3.90
2022-11-07T18:11:21.030Z,3.28
2022-11-07T18:13:50.083Z,3.10
2022-11-07T18:16:22.668Z,3.50
2022-11-07T18:18:49.510Z,3.50
2022-11-07T18:21:24.863Z,3.60
2022-11-07T18:23:51.412Z,3.38
2022-11-07T18:26:20.201Z,3.25
2022-11-07T18:28:47.295Z,3.55
2022-11-07T18:31:15.164Z,3.47
2022-11-07T18:33:41.807Z,3.38
2022-11-07T18:36:10.660Z,4.07
2022-11-07T18:38:39.701Z,3.33
2022-11-07T18:41:08.142Z,3.45
2022-11-07T18:43:36.496Z,3.83
2022-11-07T18:46:05.468Z,3.60
2022-11-07T18:48:31.898Z,4.05
2022-11-07T18:50:58.725Z,3.92
2022-11-07T18:53:25.115Z,3.72
2022-11-07T18:55:59.015Z,3.97
2022-11-07T18:58:27.180Z,3.60
2022-11-07T19:00:54.146Z,3.92
2022-11-07T19:03:21.578Z,3.72
2022-11-07T19:05:48.293Z,3.58
2022-11-07T19:08:15.098Z,3.72
2022-11-07T19:10:41.972Z,3.70
2022-11-07T19:13:08.659Z,3.22
2022-11-07T19:15:39.011Z,3.30
2022-11-07T19:18:05.493Z,2.95
2022-11-07T19:20:31.901Z,3.55
2022-11-07T19:22:58.300Z,3.30
2022-11-07T19:25:24.775Z,3.15
2022-11-07T19:27:51.241Z,3.60
2022-11-07T19:30:17.807Z,2.40
2022-11-07T19:32:44.399Z,3.50
2022-11-07T19:35:10.788Z,3.03
2022-11-07T19:37:37.263Z,4.13
2022-11-07T19:40:04.970Z,3.22
2022-11-07T19:42:31.383Z,3.42
2022-11-07T19:44:57.777Z,3.65
2022-11-07T19:47:24.206Z,3.67
2022-11-07T19:49:50.584Z,3.47
2022-11-07T19:52:16.995Z,3.67
2022-11-07T19:54:43.375Z,3.83
2022-11-07T19:57:09.777Z,3.72
2022-11-07T19:59:36.180Z,3.60
2022-11-07T20:02:31.063Z,3.60
2022-11-07T20:04:48.997Z,3.45
2022-11-07T20:07:15.453Z,3.22
2022-11-07T20:09:41.841Z,3.05
2022-11-07T20:12:08.326Z,3.80
2022-11-07T20:14:34.738Z,3.50
2022-11-07T20:17:01.211Z,3.28
2022-11-07T20:19:27.626Z,3.67
2022-11-07T20:21:54.025Z,3.50
2022-11-07T20:24:20.466Z,2.67
2022-11-07T20:26:47.151Z,3.30
2022-11-07T20:29:13.589Z,3.45
2022-11-07T20:31:40.104Z,3.38
2022-11-07T20:34:07.635Z,3.33
2022-11-07T20:36:34.309Z,2.85
2022-11-07T20:39:02.715Z,3.58
2022-11-07T20:41:29.262Z,2.67
2022-11-07T20:44:00.594Z,2.88
2022-11-07T20:46:27.332Z,3.20
2022-11-07T20:48:53.756Z,3.28
2022-11-07T20:51:21.742Z,3.33
2022-11-07T20:53:50.362Z,2.83
2022-11-07T20:56:18.382Z,2.90
2022-11-07T20:58:45.342Z,2.63
2022-11-07T21:01:13.407Z,3.05
2022-11-07T21:03:39.952Z,2.90
2022-11-07T21:06:06.384Z,3.08
2022-11-07T21:08:37.078Z,2.60
2022-11-07T21:11:03.825Z,2.97
2022-11-07T21:13:30.268Z,2.70
2022-11-07T21:15:56.711Z,2.20
2022-11-07T21:18:23.154Z,2.88
2022-11-07T21:20:49.536Z,2.90
2022-11-07T21:23:16.392Z,2.72
2022-11-07T21:25:44.051Z,2.30
2022-11-07T21:28:16.336Z,2.58
2022-11-07T21:30:57.359Z,2.60
2022-11-07T21:33:23.867Z,2.08
2022-11-07T21:35:50.275Z,2.45
2022-11-07T21:38:16.710Z,2.33
2022-11-07T21:40:43.126Z,2.28
2022-11-07T21:43:09.602Z,2.10
2022-11-07T21:45:36.421Z,2.20
2022-11-07T21:48:03.011Z,1.85
2022-11-07T21:50:45.644Z,2.33
2022-11-07T21:53:13.292Z,2.20
2022-11-07T21:55:39.945Z,2.38
2022-11-07T21:58:06.406Z,1.95
2022-11-07T22:00:36.302Z,2.03
2022-11-07T22:03:03.948Z,1.75
2022-11-07T22:05:30.322Z,2.05
2022-11-07T22:07:56.714Z,1.90
2022-11-07T22:10:23.115Z,1.73
2022-11-07T22:12:49.532Z,1.90
2022-11-07T22:15:16.014Z,2.40
2022-11-07T22:17:42.420Z,1.85
2022-11-07T22:20:09.427Z,1.80
2022-11-07T22:22:35.846Z,2.42
2022-11-07T22:25:02.220Z,1.90
2022-11-07T22:27:28.623Z,1.88
2022-11-07T22:29:55.025Z,1.83
2022-11-07T22:32:21.464Z,1.90
2022-11-07T22:34:47.914Z,1.40
2022-11-07T22:37:14.321Z,2.00
2022-11-07T22:39:40.725Z,2.10
2022-11-07T22:42:07.104Z,1.65
2022-11-07T22:44:33.523Z,1.58
2022-11-07T22:46:59.910Z,1.77
2022-11-07T22:49:26.318Z,1.65
2022-11-07T22:51:52.703Z,2.00
2022-11-07T22:54:19.098Z,2.00
2022-11-07T22:56:45.488Z,1.90
2022-11-07T22:59:11.949Z,1.50
2022-11-07T23:01:39.674Z,1.52
2022-11-07T23:04:06.350Z,1.50
2022-11-07T23:06:33.199Z,1.35
2022-11-07T23:08:59.858Z,1.42
2022-11-07T23:11:50.817Z,1.73
2022-11-07T23:14:18.555Z,1.13
2022-11-07T23:16:46.779Z,1.63
2022-11-07T23:19:14.017Z,1.30
2022-11-07T23:21:40.711Z,1.50
2022-11-07T23:24:07.159Z,1.60
2022-11-07T23:26:34.160Z,1.70
2022-11-07T23:29:10.170Z,1.30
2022-11-07T23:31:38.395Z,1.48
2022-11-07T23:34:04.809Z,1.27
2022-11-07T23:36:31.226Z,1.50
2022-11-07T23:38:57.605Z,1.25
2022-11-07T23:41:24.017Z,1.55
2022-11-07T23:43:52.596Z,1.10
2022-11-07T23:46:19.349Z,1.27
2022-11-07T23:48:45.755Z,1.15
2022-11-07T23:51:12.324Z,1.40
2022-11-07T23:53:38.729Z,1.30
2022-11-07T23:56:06.340Z,1.20
2022-11-07T23:58:32.726Z,1.42
